sensor_id;sensor_type;location;lat;lon;timestamp;P1;durP1;ratioP1;P2;durP2;ratioP2
11537;SDS011;50159;49.426;11.182;2023-07-29T00:01:35;2.27;;;2.17;;
11537;SDS011;50159;49.426;11.182;2023-07-29T00:04:03;2.37;;;2.27;;
11537;SDS011;50159;49.426;11.182;2023-07-29T00:06:31;2.03;;;2.03;;
11537;SDS011;50159;49.426;11.182;2023-07-29T00:08:57;2.13;;;2.13;;
11537;SDS011;50159;49.426;11.182;2023-07-29T00:11:24;2.27;;;2.17;;
11537;SDS011;50159;49.426;11.182;2023-07-29T00:13:51;2.30;;;2.20;;
11537;SDS011;50159;49.426;11.182;2023-07-29T00:16:19;2.30;;;2.20;;
11537;SDS011;50159;49.426;11.182;2023-07-29T00:18:48;2.10;;;2.10;;
11537;SDS011;50159;49.426;11.182;2023-07-29T00:21:15;2.30;;;2.10;;
11537;SDS011;50159;49.426;11.182;2023-07-29T00:23:42;1.90;;;1.90;;
11537;SDS011;50159;49.426;11.182;2023-07-29T00:26:09;2.37;;;2.20;;
11537;SDS011;50159;49.426;11.182;2023-07-29T00:28:36;2.47;;;2.37;;
11537;SDS011;50159;49.426;11.182;2023-07-29T00:31:03;2.00;;;2.00;;
11537;SDS011;50159;49.426;11.182;2023-07-29T00:33:30;2.10;;;2.10;;
11537;SDS011;50159;49.426;11.182;2023-07-29T00:35:57;2.03;;;2.03;;
11537;SDS011;50159;49.426;11.182;2023-07-29T00:38:27;2.07;;;2.03;;
11537;SDS011;50159;49.426;11.182;2023-07-29T00:40:56;2.23;;;2.23;;
11537;SDS011;50159;49.426;11.182;2023-07-29T00:43:24;1.97;;;1.97;;
11537;SDS011;50159;49.426;11.182;2023-07-29T00:45:51;2.50;;;2.40;;
11537;SDS011;50159;49.426;11.182;2023-07-29T00:48:19;2.33;;;2.23;;
11537;SDS011;50159;49.426;11.182;2023-07-29T00:50:46;2.37;;;2.27;;
11537;SDS011;50159;49.426;11.182;2023-07-29T00:53:14;2.17;;;2.07;;
11537;SDS011;50159;49.426;11.182;2023-07-29T00:55:41;2.07;;;2.00;;
11537;SDS011;50159;49.426;11.182;2023-07-29T00:58:09;2.30;;;2.20;;
11537;SDS011;50159;49.426;11.182;2023-07-29T01:00:36;2.43;;;2.33;;
11537;SDS011;50159;49.426;11.182;2023-07-29T01:03:04;2.10;;;2.10;;
11537;SDS011;50159;49.426;11.182;2023-07-29T01:05:34;2.53;;;2.43;;
11537;SDS011;50159;49.426;11.182;2023-07-29T01:08:20;2.57;;;2.47;;
11537;SDS011;50159;49.426;11.182;2023-07-29T01:11:03;2.30;;;2.20;;
11537;SDS011;50159;49.426;11.182;2023-07-29T01:14:07;2.23;;;2.20;;
11537;SDS011;50159;49.426;11.182;2023-07-29T01:16:52;2.20;;;2.10;;
11537;SDS011;50159;49.426;11.182;2023-07-29T01:19:40;2.50;;;2.40;;
11537;SDS011;50159;49.426;11.182;2023-07-29T01:22:14;2.63;;;2.53;;
11537;SDS011;50159;49.426;11.182;2023-07-29T01:24:42;2.30;;;2.10;;
11537;SDS011;50159;49.426;11.182;2023-07-29T01:27:09;2.43;;;2.33;;
11537;SDS011;50159;49.426;11.182;2023-07-29T01:29:36;2.50;;;2.40;;
11537;SDS011;50159;49.426;11.182;2023-07-29T01:32:24;2.27;;;2.17;;
11537;SDS011;50159;49.426;11.182;2023-07-29T01:35:07;2.57;;;2.47;;
11537;SDS011;50159;49.426;11.182;2023-07-29T01:38:40;3.13;;;2.50;;
11537;SDS011;50159;49.426;11.182;2023-07-29T01:41:01;2.40;;;2.30;;
11537;SDS011;50159;49.426;11.182;2023-07-29T01:43:29;2.30;;;2.20;;
11537;SDS011;50159;49.426;11.182;2023-07-29T01:45:57;2.67;;;2.47;;
11537;SDS011;50159;49.426;11.182;2023-07-29T01:48:24;2.57;;;2.47;;
11537;SDS011;50159;49.426;11.182;2023-07-29T01:50:53;2.20;;;2.10;;
11537;SDS011;50159;49.426;11.182;2023-07-29T01:53:20;2.37;;;2.33;;
11537;SDS011;50159;49.426;11.182;2023-07-29T01:55:47;2.60;;;2.50;;
11537;SDS011;50159;49.426;11.182;2023-07-29T01:58:13;2.27;;;2.17;;
11537;SDS011;50159;49.426;11.182;2023-07-29T02:00:40;2.63;;;2.53;;
11537;SDS011;50159;49.426;11.182;2023-07-29T02:03:07;2.70;;;2.60;;
11537;SDS011;50159;49.426;11.182;2023-07-29T02:05:34;2.30;;;2.20;;
11537;SDS011;50159;49.426;11.182;2023-07-29T02:08:01;2.10;;;2.00;;
11537;SDS011;50159;49.426;11.182;2023-07-29T02:10:28;2.67;;;2.57;;
11537;SDS011;50159;49.426;11.182;2023-07-29T02:12:55;2.50;;;2.40;;
11537;SDS011;50159;49.426;11.182;2023-07-29T02:15:21;2.90;;;2.80;;
11537;SDS011;50159;49.426;11.182;2023-07-29T02:17:49;2.47;;;2.37;;
11537;SDS011;50159;49.426;11.182;2023-07-29T02:20:17;2.50;;;2.40;;
11537;SDS011;50159;49.426;11.182;2023-07-29T02:22:44;2.33;;;2.23;;
11537;SDS011;50159;49.426;11.182;2023-07-29T02:25:11;2.70;;;2.60;;
11537;SDS011;50159;49.426;11.182;2023-07-29T02:27:38;2.70;;;2.60;;
11537;SDS011;50159;49.426;11.182;2023-07-29T02:30:05;2.77;;;2.67;;
11537;SDS011;50159;49.426;11.182;2023-07-29T02:32:32;2.30;;;2.20;;
11537;SDS011;50159;49.426;11.182;2023-07-29T02:34:59;2.60;;;2.40;;
11537;SDS011;50159;49.426;11.182;2023-07-29T02:37:26;2.40;;;2.30;;
11537;SDS011;50159;49.426;11.182;2023-07-29T02:39:53;3.63;;;2.50;;
11537;SDS011;50159;49.426;11.182;2023-07-29T02:42:20;2.83;;;2.73;;
11537;SDS011;50159;49.426;11.182;2023-07-29T02:44:47;2.43;;;2.33;;
11537;SDS011;50159;49.426;11.182;2023-07-29T02:47:13;2.43;;;2.33;;
11537;SDS011;50159;49.426;11.182;2023-07-29T02:49:40;2.50;;;2.40;;
11537;SDS011;50159;49.426;11.182;2023-07-29T02:52:07;2.50;;;2.40;;
11537;SDS011;50159;49.426;11.182;2023-07-29T02:54:34;2.40;;;2.30;;
11537;SDS011;50159;49.426;11.182;2023-07-29T02:57:00;2.23;;;2.13;;
11537;SDS011;50159;49.426;11.182;2023-07-29T02:59:27;2.43;;;2.23;;
11537;SDS011;50159;49.426;11.182;2023-07-29T03:01:54;2.67;;;2.57;;
11537;SDS011;50159;49.426;11.182;2023-07-29T03:04:21;2.57;;;2.47;;
11537;SDS011;50159;49.426;11.182;2023-07-29T03:06:49;3.07;;;2.87;;
11537;SDS011;50159;49.426;11.182;2023-07-29T03:09:16;2.40;;;2.20;;
11537;SDS011;50159;49.426;11.182;2023-07-29T03:11:43;2.50;;;2.40;;
11537;SDS011;50159;49.426;11.182;2023-07-29T03:14:09;2.87;;;2.67;;
11537;SDS011;50159;49.426;11.182;2023-07-29T03:16:37;2.70;;;2.60;;
11537;SDS011;50159;49.426;11.182;2023-07-29T03:19:04;2.30;;;2.20;;
11537;SDS011;50159;49.426;11.182;2023-07-29T03:21:32;6.40;;;2.37;;
11537;SDS011;50159;49.426;11.182;2023-07-29T03:23:59;2.50;;;2.40;;
11537;SDS011;50159;49.426;11.182;2023-07-29T03:26:26;2.90;;;2.80;;
11537;SDS011;50159;49.426;11.182;2023-07-29T03:28:53;2.37;;;2.27;;
11537;SDS011;50159;49.426;11.182;2023-07-29T03:31:20;2.40;;;2.30;;
11537;SDS011;50159;49.426;11.182;2023-07-29T03:33:47;2.77;;;2.60;;
11537;SDS011;50159;49.426;11.182;2023-07-29T03:36:14;2.50;;;2.40;;
11537;SDS011;50159;49.426;11.182;2023-07-29T03:38:41;2.60;;;2.50;;
11537;SDS011;50159;49.426;11.182;2023-07-29T03:41:08;2.83;;;2.57;;
11537;SDS011;50159;49.426;11.182;2023-07-29T03:43:35;2.60;;;2.50;;
11537;SDS011;50159;49.426;11.182;2023-07-29T03:46:02;2.37;;;2.27;;
11537;SDS011;50159;49.426;11.182;2023-07-29T03:48:29;2.53;;;2.43;;
11537;SDS011;50159;49.426;11.182;2023-07-29T03:50:57;2.63;;;2.53;;
11537;SDS011;50159;49.426;11.182;2023-07-29T03:53:24;2.30;;;2.20;;
11537;SDS011;50159;49.426;11.182;2023-07-29T03:55:51;2.47;;;2.27;;
11537;SDS011;50159;49.426;11.182;2023-07-29T03:58:18;2.13;;;2.13;;
11537;SDS011;50159;49.426;11.182;2023-07-29T04:00:45;2.53;;;2.43;;
11537;SDS011;50159;49.426;11.182;2023-07-29T04:03:12;2.27;;;2.20;;
11537;SDS011;50159;49.426;11.182;2023-07-29T04:05:39;2.67;;;2.53;;
11537;SDS011;50159;49.426;11.182;2023-07-29T04:08:09;2.17;;;2.17;;
11537;SDS011;50159;49.426;11.182;2023-07-29T04:10:36;2.67;;;2.40;;
11537;SDS011;50159;49.426;11.182;2023-07-29T04:13:04;2.43;;;2.33;;
11537;SDS011;50159;49.426;11.182;2023-07-29T04:15:31;2.37;;;2.30;;
11537;SDS011;50159;49.426;11.182;2023-07-29T04:17:58;2.60;;;2.50;;
11537;SDS011;50159;49.426;11.182;2023-07-29T04:20:25;2.83;;;2.63;;
11537;SDS011;50159;49.426;11.182;2023-07-29T04:22:51;2.90;;;2.70;;
11537;SDS011;50159;49.426;11.182;2023-07-29T04:25:18;2.67;;;2.57;;
11537;SDS011;50159;49.426;11.182;2023-07-29T04:27:45;2.83;;;2.40;;
11537;SDS011;50159;49.426;11.182;2023-07-29T04:30:12;2.37;;;2.27;;
11537;SDS011;50159;49.426;11.182;2023-07-29T04:32:38;2.10;;;2.10;;
11537;SDS011;50159;49.426;11.182;2023-07-29T04:35:05;1.83;;;1.83;;
11537;SDS011;50159;49.426;11.182;2023-07-29T04:37:33;2.10;;;2.00;;
11537;SDS011;50159;49.426;11.182;2023-07-29T04:39:59;1.90;;;1.90;;
11537;SDS011;50159;49.426;11.182;2023-07-29T04:42:26;2.43;;;2.33;;
11537;SDS011;50159;49.426;11.182;2023-07-29T04:44:53;2.23;;;2.13;;
11537;SDS011;50159;49.426;11.182;2023-07-29T04:47:21;2.07;;;2.00;;
11537;SDS011;50159;49.426;11.182;2023-07-29T04:49:49;2.10;;;2.07;;
11537;SDS011;50159;49.426;11.182;2023-07-29T04:52:16;2.40;;;2.30;;
11537;SDS011;50159;49.426;11.182;2023-07-29T04:54:45;2.27;;;2.17;;
11537;SDS011;50159;49.426;11.182;2023-07-29T04:57:12;1.77;;;1.77;;
11537;SDS011;50159;49.426;11.182;2023-07-29T04:59:38;1.83;;;1.83;;
11537;SDS011;50159;49.426;11.182;2023-07-29T05:02:05;2.10;;;2.00;;
11537;SDS011;50159;49.426;11.182;2023-07-29T05:04:32;1.90;;;1.80;;
11537;SDS011;50159;49.426;11.182;2023-07-29T05:06:59;1.93;;;1.93;;
11537;SDS011;50159;49.426;11.182;2023-07-29T05:09:26;2.10;;;2.10;;
11537;SDS011;50159;49.426;11.182;2023-07-29T05:11:54;1.70;;;1.70;;
11537;SDS011;50159;49.426;11.182;2023-07-29T05:14:21;2.23;;;2.10;;
11537;SDS011;50159;49.426;11.182;2023-07-29T05:16:48;1.80;;;1.80;;
11537;SDS011;50159;49.426;11.182;2023-07-29T05:19:15;1.90;;;1.80;;
11537;SDS011;50159;49.426;11.182;2023-07-29T05:21:42;2.03;;;1.83;;
11537;SDS011;50159;49.426;11.182;2023-07-29T05:24:09;1.70;;;1.70;;
11537;SDS011;50159;49.426;11.182;2023-07-29T05:26:35;1.70;;;1.70;;
11537;SDS011;50159;49.426;11.182;2023-07-29T05:29:02;2.77;;;2.67;;
11537;SDS011;50159;49.426;11.182;2023-07-29T05:31:30;1.50;;;1.50;;
11537;SDS011;50159;49.426;11.182;2023-07-29T05:33:57;1.77;;;1.70;;
11537;SDS011;50159;49.426;11.182;2023-07-29T05:36:25;1.30;;;1.30;;
11537;SDS011;50159;49.426;11.182;2023-07-29T05:38:52;1.70;;;1.70;;
11537;SDS011;50159;49.426;11.182;2023-07-29T05:41:19;1.70;;;1.70;;
11537;SDS011;50159;49.426;11.182;2023-07-29T05:43:46;1.60;;;1.60;;
11537;SDS011;50159;49.426;11.182;2023-07-29T05:46:13;1.70;;;1.70;;
11537;SDS011;50159;49.426;11.182;2023-07-29T05:48:40;1.80;;;1.70;;
11537;SDS011;50159;49.426;11.182;2023-07-29T05:51:07;1.80;;;1.80;;
11537;SDS011;50159;49.426;11.182;2023-07-29T05:53:33;1.60;;;1.60;;
11537;SDS011;50159;49.426;11.182;2023-07-29T05:56:00;3.00;;;1.70;;
11537;SDS011;50159;49.426;11.182;2023-07-29T05:58:27;1.90;;;1.80;;
11537;SDS011;50159;49.426;11.182;2023-07-29T06:00:54;1.97;;;1.97;;
11537;SDS011;50159;49.426;11.182;2023-07-29T06:03:20;2.03;;;2.00;;
11537;SDS011;50159;49.426;11.182;2023-07-29T06:05:48;1.63;;;1.57;;
11537;SDS011;50159;49.426;11.182;2023-07-29T06:08:19;1.70;;;1.70;;
11537;SDS011;50159;49.426;11.182;2023-07-29T06:10:46;2.00;;;1.90;;
11537;SDS011;50159;49.426;11.182;2023-07-29T06:13:13;2.30;;;2.20;;
11537;SDS011;50159;49.426;11.182;2023-07-29T06:15:40;2.03;;;1.93;;
11537;SDS011;50159;49.426;11.182;2023-07-29T06:18:10;2.27;;;2.17;;
11537;SDS011;50159;49.426;11.182;2023-07-29T06:20:37;3.00;;;2.80;;
11537;SDS011;50159;49.426;11.182;2023-07-29T06:23:04;3.60;;;2.60;;
11537;SDS011;50159;49.426;11.182;2023-07-29T06:25:31;2.53;;;2.43;;
11537;SDS011;50159;49.426;11.182;2023-07-29T06:27:57;2.70;;;2.50;;
11537;SDS011;50159;49.426;11.182;2023-07-29T06:30:24;1.93;;;1.83;;
11537;SDS011;50159;49.426;11.182;2023-07-29T06:32:51;2.50;;;2.40;;
11537;SDS011;50159;49.426;11.182;2023-07-29T06:35:18;2.50;;;2.20;;
11537;SDS011;50159;49.426;11.182;2023-07-29T06:37:45;2.10;;;2.10;;
11537;SDS011;50159;49.426;11.182;2023-07-29T06:40:12;2.20;;;2.10;;
11537;SDS011;50159;49.426;11.182;2023-07-29T06:42:39;1.70;;;1.70;;
11537;SDS011;50159;49.426;11.182;2023-07-29T06:45:06;2.07;;;2.03;;
11537;SDS011;50159;49.426;11.182;2023-07-29T06:47:33;2.83;;;2.30;;
11537;SDS011;50159;49.426;11.182;2023-07-29T06:50:00;2.23;;;2.13;;
11537;SDS011;50159;49.426;11.182;2023-07-29T06:52:27;3.70;;;2.30;;
11537;SDS011;50159;49.426;11.182;2023-07-29T06:54:54;3.67;;;2.00;;
11537;SDS011;50159;49.426;11.182;2023-07-29T06:57:21;2.40;;;2.30;;
11537;SDS011;50159;49.426;11.182;2023-07-29T06:59:48;5.27;;;3.07;;
11537;SDS011;50159;49.426;11.182;2023-07-29T07:02:14;2.70;;;2.50;;
11537;SDS011;50159;49.426;11.182;2023-07-29T07:04:41;2.30;;;2.20;;
11537;SDS011;50159;49.426;11.182;2023-07-29T07:07:08;3.23;;;3.07;;
11537;SDS011;50159;49.426;11.182;2023-07-29T07:09:35;2.53;;;2.43;;
11537;SDS011;50159;49.426;11.182;2023-07-29T07:12:02;3.40;;;3.10;;
11537;SDS011;50159;49.426;11.182;2023-07-29T07:14:29;2.70;;;2.60;;
11537;SDS011;50159;49.426;11.182;2023-07-29T07:16:56;2.43;;;2.33;;
11537;SDS011;50159;49.426;11.182;2023-07-29T07:19:23;2.10;;;2.07;;
11537;SDS011;50159;49.426;11.182;2023-07-29T07:21:49;2.37;;;2.30;;
11537;SDS011;50159;49.426;11.182;2023-07-29T07:24:16;2.40;;;2.30;;
11537;SDS011;50159;49.426;11.182;2023-07-29T07:26:43;2.43;;;2.33;;
11537;SDS011;50159;49.426;11.182;2023-07-29T07:29:13;2.00;;;2.00;;
11537;SDS011;50159;49.426;11.182;2023-07-29T07:31:40;2.37;;;2.27;;
11537;SDS011;50159;49.426;11.182;2023-07-29T07:34:06;2.30;;;2.20;;
11537;SDS011;50159;49.426;11.182;2023-07-29T07:36:34;2.57;;;2.47;;
11537;SDS011;50159;49.426;11.182;2023-07-29T07:39:01;2.20;;;2.17;;
11537;SDS011;50159;49.426;11.182;2023-07-29T07:41:28;2.40;;;2.30;;
11537;SDS011;50159;49.426;11.182;2023-07-29T07:43:55;2.23;;;2.13;;
11537;SDS011;50159;49.426;11.182;2023-07-29T07:46:22;2.30;;;2.20;;
11537;SDS011;50159;49.426;11.182;2023-07-29T07:48:48;2.70;;;2.50;;
11537;SDS011;50159;49.426;11.182;2023-07-29T07:51:15;2.30;;;2.20;;
11537;SDS011;50159;49.426;11.182;2023-07-29T07:53:42;2.77;;;2.57;;
11537;SDS011;50159;49.426;11.182;2023-07-29T07:56:09;3.77;;;2.93;;
11537;SDS011;50159;49.426;11.182;2023-07-29T07:58:36;3.50;;;3.20;;
11537;SDS011;50159;49.426;11.182;2023-07-29T08:01:03;2.53;;;2.40;;
11537;SDS011;50159;49.426;11.182;2023-07-29T08:03:34;3.17;;;2.97;;
11537;SDS011;50159;49.426;11.182;2023-07-29T08:06:02;2.80;;;2.70;;
11537;SDS011;50159;49.426;11.182;2023-07-29T08:08:29;2.90;;;2.70;;
11537;SDS011;50159;49.426;11.182;2023-07-29T08:10:57;2.57;;;2.47;;
11537;SDS011;50159;49.426;11.182;2023-07-29T08:13:24;2.87;;;2.73;;
11537;SDS011;50159;49.426;11.182;2023-07-29T08:15:51;2.70;;;2.60;;
11537;SDS011;50159;49.426;11.182;2023-07-29T08:18:19;2.77;;;2.57;;
11537;SDS011;50159;49.426;11.182;2023-07-29T08:20:57;2.37;;;2.27;;
11537;SDS011;50159;49.426;11.182;2023-07-29T08:23:26;2.50;;;2.50;;
11537;SDS011;50159;49.426;11.182;2023-07-29T08:25:54;2.13;;;2.03;;
11537;SDS011;50159;49.426;11.182;2023-07-29T08:28:27;2.00;;;2.00;;
11537;SDS011;50159;49.426;11.182;2023-07-29T08:30:57;2.50;;;2.40;;
11537;SDS011;50159;49.426;11.182;2023-07-29T08:33:24;2.20;;;2.10;;
11537;SDS011;50159;49.426;11.182;2023-07-29T08:35:51;3.80;;;3.43;;
11537;SDS011;50159;49.426;11.182;2023-07-29T08:38:19;3.83;;;3.40;;
11537;SDS011;50159;49.426;11.182;2023-07-29T08:43:50;4.30;;;3.90;;
11537;SDS011;50159;49.426;11.182;2023-07-29T08:46:25;5.03;;;4.40;;
11537;SDS011;50159;49.426;11.182;2023-07-29T08:48:54;4.23;;;3.93;;
11537;SDS011;50159;49.426;11.182;2023-07-29T08:51:22;3.73;;;3.47;;
11537;SDS011;50159;49.426;11.182;2023-07-29T08:53:51;5.60;;;4.20;;
11537;SDS011;50159;49.426;11.182;2023-07-29T08:56:18;3.30;;;3.10;;
11537;SDS011;50159;49.426;11.182;2023-07-29T08:58:45;3.73;;;3.50;;
11537;SDS011;50159;49.426;11.182;2023-07-29T09:01:14;4.20;;;3.90;;
11537;SDS011;50159;49.426;11.182;2023-07-29T09:03:42;4.43;;;4.13;;
11537;SDS011;50159;49.426;11.182;2023-07-29T09:06:09;4.30;;;4.00;;
11537;SDS011;50159;49.426;11.182;2023-07-29T09:08:38;4.83;;;3.60;;
11537;SDS011;50159;49.426;11.182;2023-07-29T09:11:05;3.73;;;3.50;;
11537;SDS011;50159;49.426;11.182;2023-07-29T09:13:32;3.40;;;3.20;;
11537;SDS011;50159;49.426;11.182;2023-07-29T09:15:59;2.80;;;2.60;;
11537;SDS011;50159;49.426;11.182;2023-07-29T09:18:27;3.23;;;3.03;;
11537;SDS011;50159;49.426;11.182;2023-07-29T09:20:54;3.50;;;3.07;;
11537;SDS011;50159;49.426;11.182;2023-07-29T09:23:26;3.40;;;3.20;;
11537;SDS011;50159;49.426;11.182;2023-07-29T09:26:00;2.90;;;2.80;;
11537;SDS011;50159;49.426;11.182;2023-07-29T09:28:32;2.97;;;2.87;;
11537;SDS011;50159;49.426;11.182;2023-07-29T09:31:01;3.37;;;3.17;;
11537;SDS011;50159;49.426;11.182;2023-07-29T09:33:30;2.53;;;2.43;;
11537;SDS011;50159;49.426;11.182;2023-07-29T09:36:08;2.57;;;2.47;;
11537;SDS011;50159;49.426;11.182;2023-07-29T09:38:36;2.20;;;2.20;;
11537;SDS011;50159;49.426;11.182;2023-07-29T09:41:03;2.70;;;2.50;;
11537;SDS011;50159;49.426;11.182;2023-07-29T09:43:31;2.13;;;2.13;;
11537;SDS011;50159;49.426;11.182;2023-07-29T09:46:01;3.30;;;3.10;;
11537;SDS011;50159;49.426;11.182;2023-07-29T09:48:32;3.97;;;3.67;;
11537;SDS011;50159;49.426;11.182;2023-07-29T09:51:09;2.97;;;2.87;;
11537;SDS011;50159;49.426;11.182;2023-07-29T09:53:45;3.20;;;3.00;;
11537;SDS011;50159;49.426;11.182;2023-07-29T09:56:14;2.93;;;2.83;;
11537;SDS011;50159;49.426;11.182;2023-07-29T09:58:44;2.77;;;2.67;;
11537;SDS011;50159;49.426;11.182;2023-07-29T10:01:12;2.67;;;2.57;;
11537;SDS011;50159;49.426;11.182;2023-07-29T10:03:40;3.10;;;2.90;;
11537;SDS011;50159;49.426;11.182;2023-07-29T10:06:08;4.33;;;3.63;;
11537;SDS011;50159;49.426;11.182;2023-07-29T10:08:35;2.93;;;2.73;;
11537;SDS011;50159;49.426;11.182;2023-07-29T10:11:08;3.00;;;2.83;;
11537;SDS011;50159;49.426;11.182;2023-07-29T10:13:37;2.80;;;2.70;;
11537;SDS011;50159;49.426;11.182;2023-07-29T10:16:05;3.43;;;3.23;;
11537;SDS011;50159;49.426;11.182;2023-07-29T10:18:32;2.57;;;2.47;;
11537;SDS011;50159;49.426;11.182;2023-07-29T10:21:00;2.73;;;2.60;;
11537;SDS011;50159;49.426;11.182;2023-07-29T10:23:32;3.03;;;2.83;;
11537;SDS011;50159;49.426;11.182;2023-07-29T10:26:05;3.50;;;2.70;;
11537;SDS011;50159;49.426;11.182;2023-07-29T10:28:39;3.53;;;2.77;;
11537;SDS011;50159;49.426;11.182;2023-07-29T10:31:08;2.70;;;2.60;;
11537;SDS011;50159;49.426;11.182;2023-07-29T10:33:35;3.03;;;2.83;;
11537;SDS011;50159;49.426;11.182;2023-07-29T10:36:03;3.23;;;3.13;;
11537;SDS011;50159;49.426;11.182;2023-07-29T10:38:31;2.80;;;2.70;;
11537;SDS011;50159;49.426;11.182;2023-07-29T10:40:58;2.57;;;2.47;;
11537;SDS011;50159;49.426;11.182;2023-07-29T10:43:27;2.90;;;2.80;;
11537;SDS011;50159;49.426;11.182;2023-07-29T10:46:22;3.77;;;3.03;;
11537;SDS011;50159;49.426;11.182;2023-07-29T10:48:54;3.57;;;3.30;;
11537;SDS011;50159;49.426;11.182;2023-07-29T10:51:29;2.90;;;2.70;;
11537;SDS011;50159;49.426;11.182;2023-07-29T10:54:11;3.07;;;2.50;;
11537;SDS011;50159;49.426;11.182;2023-07-29T10:56:41;2.60;;;2.50;;
11537;SDS011;50159;49.426;11.182;2023-07-29T11:01:50;3.07;;;2.70;;
11537;SDS011;50159;49.426;11.182;2023-07-29T11:04:26;2.60;;;2.50;;
11537;SDS011;50159;49.426;11.182;2023-07-29T11:12:41;2.37;;;2.27;;
11537;SDS011;50159;49.426;11.182;2023-07-29T11:17:53;2.23;;;2.10;;
11537;SDS011;50159;49.426;11.182;2023-07-29T11:20:26;2.70;;;2.10;;
11537;SDS011;50159;49.426;11.182;2023-07-29T11:22:56;2.23;;;1.97;;
11537;SDS011;50159;49.426;11.182;2023-07-29T11:25:29;2.27;;;2.07;;
11537;SDS011;50159;49.426;11.182;2023-07-29T11:27:58;1.90;;;1.90;;
11537;SDS011;50159;49.426;11.182;2023-07-29T11:30:31;1.90;;;1.80;;
11537;SDS011;50159;49.426;11.182;2023-07-29T11:32:59;3.20;;;1.57;;
11537;SDS011;50159;49.426;11.182;2023-07-29T11:35:26;1.70;;;1.70;;
11537;SDS011;50159;49.426;11.182;2023-07-29T11:37:54;1.80;;;1.80;;
11537;SDS011;50159;49.426;11.182;2023-07-29T11:40:24;2.10;;;2.00;;
11537;SDS011;50159;49.426;11.182;2023-07-29T11:42:51;2.53;;;2.33;;
11537;SDS011;50159;49.426;11.182;2023-07-29T11:45:21;2.60;;;2.10;;
11537;SDS011;50159;49.426;11.182;2023-07-29T11:48:04;1.77;;;1.77;;
11537;SDS011;50159;49.426;11.182;2023-07-29T11:50:32;4.70;;;2.10;;
11537;SDS011;50159;49.426;11.182;2023-07-29T11:53:01;1.90;;;1.80;;
11537;SDS011;50159;49.426;11.182;2023-07-29T11:55:29;2.00;;;1.90;;
11537;SDS011;50159;49.426;11.182;2023-07-29T11:57:56;2.10;;;2.00;;
11537;SDS011;50159;49.426;11.182;2023-07-29T12:00:23;1.97;;;1.87;;
11537;SDS011;50159;49.426;11.182;2023-07-29T12:02:52;2.97;;;1.90;;
11537;SDS011;50159;49.426;11.182;2023-07-29T12:05:20;2.20;;;2.10;;
11537;SDS011;50159;49.426;11.182;2023-07-29T12:07:49;2.00;;;1.90;;
11537;SDS011;50159;49.426;11.182;2023-07-29T12:10:16;1.63;;;1.63;;
11537;SDS011;50159;49.426;11.182;2023-07-29T12:12:45;1.70;;;1.70;;
11537;SDS011;50159;49.426;11.182;2023-07-29T12:15:13;2.10;;;2.00;;
11537;SDS011;50159;49.426;11.182;2023-07-29T12:17:52;1.93;;;1.93;;
11537;SDS011;50159;49.426;11.182;2023-07-29T12:20:23;2.60;;;2.50;;
11537;SDS011;50159;49.426;11.182;2023-07-29T12:22:54;3.00;;;2.70;;
11537;SDS011;50159;49.426;11.182;2023-07-29T12:25:28;41.53;;;30.20;;
11537;SDS011;50159;49.426;11.182;2023-07-29T12:27:55;171.73;;;124.23;;
11537;SDS011;50159;49.426;11.182;2023-07-29T12:30:22;52.87;;;41.73;;
11537;SDS011;50159;49.426;11.182;2023-07-29T12:32:51;78.90;;;61.93;;
11537;SDS011;50159;49.426;11.182;2023-07-29T12:35:18;22.93;;;15.33;;
11537;SDS011;50159;49.426;11.182;2023-07-29T12:37:44;10.13;;;8.00;;
11537;SDS011;50159;49.426;11.182;2023-07-29T12:40:24;8.93;;;7.20;;
11537;SDS011;50159;49.426;11.182;2023-07-29T12:42:52;70.77;;;43.07;;
11537;SDS011;50159;49.426;11.182;2023-07-29T12:45:20;432.87;;;325.23;;
11537;SDS011;50159;49.426;11.182;2023-07-29T12:47:49;528.57;;;395.77;;
11537;SDS011;50159;49.426;11.182;2023-07-29T12:50:16;112.70;;;76.87;;
11537;SDS011;50159;49.426;11.182;2023-07-29T12:52:44;74.90;;;54.57;;
11537;SDS011;50159;49.426;11.182;2023-07-29T12:55:10;42.53;;;31.50;;
11537;SDS011;50159;49.426;11.182;2023-07-29T12:57:41;10.27;;;6.47;;
11537;SDS011;50159;49.426;11.182;2023-07-29T13:00:10;2.20;;;2.10;;
11537;SDS011;50159;49.426;11.182;2023-07-29T13:02:37;1.80;;;1.80;;
11537;SDS011;50159;49.426;11.182;2023-07-29T13:05:05;1.70;;;1.70;;
11537;SDS011;50159;49.426;11.182;2023-07-29T13:07:35;1.40;;;1.40;;
11537;SDS011;50159;49.426;11.182;2023-07-29T13:10:02;1.80;;;1.70;;
11537;SDS011;50159;49.426;11.182;2023-07-29T13:12:29;1.60;;;1.60;;
11537;SDS011;50159;49.426;11.182;2023-07-29T13:14:56;1.70;;;1.60;;
11537;SDS011;50159;49.426;11.182;2023-07-29T13:17:23;1.43;;;1.43;;
11537;SDS011;50159;49.426;11.182;2023-07-29T13:19:50;1.50;;;1.50;;
11537;SDS011;50159;49.426;11.182;2023-07-29T13:22:17;1.40;;;1.40;;
11537;SDS011;50159;49.426;11.182;2023-07-29T13:24:46;1.93;;;1.83;;
11537;SDS011;50159;49.426;11.182;2023-07-29T13:27:13;1.97;;;1.87;;
11537;SDS011;50159;49.426;11.182;2023-07-29T13:29:40;1.50;;;1.50;;
11537;SDS011;50159;49.426;11.182;2023-07-29T13:32:07;1.80;;;1.70;;
11537;SDS011;50159;49.426;11.182;2023-07-29T13:34:34;1.63;;;1.47;;
11537;SDS011;50159;49.426;11.182;2023-07-29T13:37:01;1.60;;;1.60;;
11537;SDS011;50159;49.426;11.182;2023-07-29T13:39:28;1.90;;;1.57;;
11537;SDS011;50159;49.426;11.182;2023-07-29T13:41:55;1.50;;;1.50;;
11537;SDS011;50159;49.426;11.182;2023-07-29T13:44:22;1.43;;;1.43;;
11537;SDS011;50159;49.426;11.182;2023-07-29T13:46:49;1.33;;;1.33;;
11537;SDS011;50159;49.426;11.182;2023-07-29T13:49:15;1.53;;;1.53;;
11537;SDS011;50159;49.426;11.182;2023-07-29T13:51:43;1.47;;;1.47;;
11537;SDS011;50159;49.426;11.182;2023-07-29T13:54:09;1.33;;;1.33;;
11537;SDS011;50159;49.426;11.182;2023-07-29T13:56:36;1.40;;;1.40;;
11537;SDS011;50159;49.426;11.182;2023-07-29T13:59:04;1.30;;;1.30;;
11537;SDS011;50159;49.426;11.182;2023-07-29T14:01:31;1.67;;;1.57;;
11537;SDS011;50159;49.426;11.182;2023-07-29T14:03:57;1.63;;;1.53;;
11537;SDS011;50159;49.426;11.182;2023-07-29T14:06:24;3.37;;;1.40;;
11537;SDS011;50159;49.426;11.182;2023-07-29T14:09:09;1.40;;;1.40;;
11537;SDS011;50159;49.426;11.182;2023-07-29T14:11:36;1.70;;;1.53;;
11537;SDS011;50159;49.426;11.182;2023-07-29T14:14:03;1.60;;;1.50;;
11537;SDS011;50159;49.426;11.182;2023-07-29T14:16:30;1.60;;;1.50;;
11537;SDS011;50159;49.426;11.182;2023-07-29T14:18:57;2.10;;;1.40;;
11537;SDS011;50159;49.426;11.182;2023-07-29T14:21:24;1.20;;;1.20;;
11537;SDS011;50159;49.426;11.182;2023-07-29T14:23:51;1.27;;;1.27;;
11537;SDS011;50159;49.426;11.182;2023-07-29T14:26:18;1.20;;;1.20;;
11537;SDS011;50159;49.426;11.182;2023-07-29T14:28:45;1.57;;;1.47;;
11537;SDS011;50159;49.426;11.182;2023-07-29T14:31:12;1.33;;;1.30;;
11537;SDS011;50159;49.426;11.182;2023-07-29T14:33:39;1.10;;;1.10;;
11537;SDS011;50159;49.426;11.182;2023-07-29T14:36:06;1.10;;;1.10;;
11537;SDS011;50159;49.426;11.182;2023-07-29T14:38:34;1.40;;;1.40;;
11537;SDS011;50159;49.426;11.182;2023-07-29T14:41:02;1.30;;;1.30;;
11537;SDS011;50159;49.426;11.182;2023-07-29T14:43:30;1.20;;;1.20;;
11537;SDS011;50159;49.426;11.182;2023-07-29T14:45:57;1.20;;;1.20;;
11537;SDS011;50159;49.426;11.182;2023-07-29T14:48:24;1.13;;;1.13;;
11537;SDS011;50159;49.426;11.182;2023-07-29T14:50:51;1.10;;;1.10;;
11537;SDS011;50159;49.426;11.182;2023-07-29T14:53:18;1.40;;;1.40;;
11537;SDS011;50159;49.426;11.182;2023-07-29T14:55:45;0.90;;;0.90;;